Airfield :
LOGIN :

Register | Disclaimer

   EN    FR    IT 

 










Legend :    VFR   Marginal VFR   IFR   Intensive IFR   Very Intensive IFR
Visi :
Ceiling :
>= 8 km
>= 3000ft
5 to 8 km
1000 to 3000 ft
1500m to 5 km
500 to 1000 ft
800 to 1500m
200 to 500 ft
< 800m
< 200 ft
Symbols :   Thunderstorms  Fog  Heavy snow  Heavy precipitations  Wind > 20 kt
SIGMETs :     Misc.  Thunderstorms  Icing  Turbulence  Mountain Waves  Volcanic Ashes







- Airport Elevation : 20 ft
- IATA code : OBN
- Download approach charts


EGEO - Oban

CURRENT METAR :
  • 141450Z 24004KT 170V320 8000 RA FEW016 BKN018 OVC024 04/01 Q0981

EXPIRED METARs :
  • 141420Z 26003KT 210V290 8000 VCSH FEW018 OVC023 04/01 Q0981
  • 141350Z 28006KT 9999 FEW024 SCT035 BKN046 04/01 Q0981
  • 141320Z 32003KT 250V360 9999 FEW024 SCT016 04/01 Q0981
  • 141220Z 35006KT 9999 FEW018 04/02 Q0981

TAF TAF EGEO
Valid from the 14 at 15:00 until the 14 at 17:00 UTC


141359Z 1415/1417 04007KT 9999 FEW010 SCT020
PROB40
TEMPO 1415/1417 4000 SHRA BKN010
No reported NOTAMs for that airfield.



MET'MAP, your aeronautical weather chart ! - Copyright ORBIFLY December 2007 - Disclaimer

ORBIFLY MET'MAP TEAM :

Programming & Development : Alexandra Zaïnal
Concept & Development : Baudouin d'Aumeries
Co-Development & Prog : Marc-Olivier Méhu
Technical & hardware support : Manuel Goepfert

Contact : metmap@orbifly.com




SOURCES & CREDITS :

   NOAA